Time;durP1;ratioP1;P1;durP2;ratioP2;P2;SDS_P1;SDS_P2;PMS_P1;PMS_P2;Temp;Humidity;BMP_temperature;BMP_pressure;BME280_temperature;BME280_humidity;BME280_pressure;Samples;Min_cycle;Max_cycle;Signal;HPM_P1;HPM_P2
2023/06/11 00:01:26;;;;;;;39.78;24.88;;;;;;;16.79;87.54;100712.03;4954392;29;20082;-45
2023/06/11 00:03:54;;;;;;;40.75;21.65;;;;;;;16.77;87.50;100708.03;4943167;29;20116;-45
2023/06/11 00:06:23;;;;;;;35.78;23.35;;;;;;;16.75;87.61;100705.63;4937104;29;20048;-47
2023/06/11 00:08:52;;;;;;;41.65;23.67;;;;;;;16.73;87.91;100707.97;4941900;29;20055;-49
2023/06/11 00:11:21;;;;;;;46.92;25.67;;;;;;;16.68;87.77;100704.78;4954281;29;20039;-44
2023/06/11 00:13:48;;;;;;;42.83;25.17;;;;;;;16.66;87.74;100709.94;4927585;29;20055;-44
2023/06/11 00:16:15;;;;;;;44.72;24.23;;;;;;;16.66;87.91;100718.31;4924931;29;20043;-48
2023/06/11 00:18:42;;;;;;;39.88;23.67;;;;;;;16.62;88.06;100709.09;4947982;29;20066;-50
2023/06/11 00:21:12;;;;;;;45.78;25.38;;;;;;;16.64;88.17;100704.72;4937682;29;20039;-47
2023/06/11 00:23:39;;;;;;;41.65;25.08;;;;;;;16.67;87.94;100715.16;4945055;29;20059;-45
2023/06/11 00:26:09;;;;;;;42.50;24.75;;;;;;;16.65;87.71;100720.31;4946447;29;20047;-45
2023/06/11 00:28:36;;;;;;;39.95;24.65;;;;;;;16.63;88.02;100724.66;4936344;29;20502;-44
2023/06/11 00:31:03;;;;;;;44.00;25.67;;;;;;;16.61;87.97;100713.09;4954187;29;20055;-44
2023/06/11 00:33:30;;;;;;;37.35;25.20;;;;;;;16.59;87.96;100712.66;4947915;29;20058;-44
2023/06/11 00:35:57;;;;;;;40.70;23.75;;;;;;;16.56;88.15;100708.66;4931088;29;20066;-45
2023/06/11 00:38:25;;;;;;;44.72;25.23;;;;;;;16.58;88.25;100722.22;4953427;29;20413;-45
2023/06/11 00:40:52;;;;;;;48.83;26.52;;;;;;;16.59;88.37;100723.84;4951032;29;20043;-45
2023/06/11 00:43:23;;;;;;;40.10;25.38;;;;;;;16.56;88.38;100719.03;4950662;29;20522;-44
2023/06/11 00:45:50;;;;;;;46.88;26.40;;;;;;;16.54;88.34;100721.41;4937171;29;20102;-45
2023/06/11 00:48:22;;;;;;;41.85;26.45;;;;;;;16.50;88.39;100712.16;4936431;29;20035;-47
2023/06/11 00:50:50;;;;;;;48.85;25.98;;;;;;;16.49;88.53;100699.38;4953687;29;20441;-45
2023/06/11 00:53:19;;;;;;;45.10;25.00;;;;;;;16.49;88.48;100703.00;4953417;29;20049;-44
2023/06/11 00:55:46;;;;;;;45.05;26.10;;;;;;;16.52;88.58;100707.00;4945897;29;20158;-44
2023/06/11 00:58:15;;;;;;;41.55;24.27;;;;;;;16.52;88.66;100695.81;4941410;29;20087;-44
2023/06/11 01:00:45;;;;;;;40.13;24.20;;;;;;;16.54;88.73;100699.06;4938220;29;20043;-47
2023/06/11 01:03:18;;;;;;;45.78;27.13;;;;;;;16.52;88.65;100698.63;4951385;29;20047;-44
2023/06/11 01:06:11;;;;;;;53.88;26.50;;;;;;;16.50;88.95;100709.34;4953499;29;20047;-44
2023/06/11 01:08:39;;;;;;;47.40;27.60;;;;;;;16.48;88.82;100706.97;4936648;29;20051;-45
2023/06/11 01:11:21;;;;;;;43.00;26.48;;;;;;;16.44;88.87;100700.56;4953241;29;20039;-44
2023/06/11 01:13:48;;;;;;;;;;;;;;;16.37;88.86;100706.88;4942374;29;20099;-44
2023/06/11 01:16:42;;;;;;;50.45;26.70;;;;;;;16.31;88.67;100705.59;4937096;29;19973;-45
2023/06/11 01:19:18;;;;;;;47.17;28.73;;;;;;;16.29;88.88;100698.78;4944989;29;20079;-44
2023/06/11 01:21:56;;;;;;;47.17;28.20;;;;;;;16.27;89.28;100692.78;4946044;29;20043;-44
2023/06/11 01:24:57;;;;;;;52.85;28.30;;;;;;;16.26;89.45;100683.59;4928958;29;20058;-46
2023/06/11 01:27:46;;;;;;;59.17;32.22;;;;;;;16.28;89.20;100686.81;4950875;29;20662;-44
2023/06/11 01:30:17;;;;;;;45.60;28.23;;;;;;;16.27;89.39;100685.22;4935948;29;20058;-44
2023/06/11 01:32:48;;;;;;;52.83;29.10;;;;;;;16.30;89.60;100690.03;4937996;29;21085;-44
2023/06/11 01:35:15;;;;;;;52.70;30.63;;;;;;;16.33;89.50;100692.06;4944012;29;20046;-44
2023/06/11 01:37:45;;;;;;;45.95;29.02;;;;;;;16.31;89.59;100685.22;4928297;29;20498;-44
2023/06/11 01:40:14;;;;;;;54.88;30.80;;;;;;;16.29;89.78;100682.84;4950531;29;20047;-44
2023/06/11 01:42:41;;;;;;;47.42;28.30;;;;;;;16.32;89.86;100686.84;4950521;29;20138;-45
2023/06/11 01:45:08;;;;;;;54.58;30.70;;;;;;;16.34;89.78;100696.44;4952510;29;20565;-44
2023/06/11 01:47:36;;;;;;;54.70;29.60;;;;;;;16.33;90.00;100694.06;4951175;29;20050;-44
2023/06/11 01:50:04;;;;;;;43.22;25.63;;;;;;;16.36;90.05;100698.88;4948256;29;20047;-44
2023/06/11 01:52:31;;;;;;;42.05;26.95;;;;;;;16.35;89.96;100698.06;4952814;29;20452;-44
2023/06/11 01:54:58;;;;;;;50.25;27.13;;;;;;;16.34;90.23;100682.47;4952659;29;20043;-44
2023/06/11 01:57:24;;;;;;;52.42;27.80;;;;;;;16.36;90.41;100682.13;4920009;29;20086;-45
2023/06/11 01:59:51;;;;;;;45.60;26.55;;;;;;;16.37;90.39;100689.28;4954412;28;20039;-44
2023/06/11 02:02:18;;;;;;;51.65;30.42;;;;;;;16.37;90.44;100687.31;4954296;29;20402;-44
2023/06/11 02:04:45;;;;;;;44.65;27.45;;;;;;;16.38;90.49;100680.53;4945032;29;20442;-46
2023/06/11 02:07:13;;;;;;;48.78;28.75;;;;;;;16.43;90.46;100682.16;4941414;29;20055;-44
2023/06/11 02:09:40;;;;;;;49.13;27.92;;;;;;;16.41;90.39;100678.97;4956720;29;20424;-44
2023/06/11 02:12:09;;;;;;;52.83;28.00;;;;;;;16.36;90.51;100688.47;4956670;29;20058;-45
2023/06/11 02:14:36;;;;;;;51.03;28.13;;;;;;;16.36;90.74;100691.28;4947230;29;20075;-45
2023/06/11 02:17:02;;;;;;;46.10;27.00;;;;;;;16.38;90.83;100680.53;4956512;29;20094;-45
2023/06/11 02:19:29;;;;;;;51.67;30.75;;;;;;;16.37;90.75;100690.09;4956250;29;20402;-47
2023/06/11 02:21:56;;;;;;;55.20;30.13;;;;;;;16.37;90.65;100694.88;4946821;29;20127;-44
2023/06/11 02:24:23;;;;;;;54.28;30.05;;;;;;;16.38;90.76;100697.31;4953980;29;20047;-44
2023/06/11 02:26:50;;;;;;;46.70;27.88;;;;;;;16.40;90.95;100700.50;4956399;29;20051;-44
2023/06/11 02:29:17;;;;;;;49.22;28.30;;;;;;;16.41;90.76;100685.31;4956478;29;20086;-44
2023/06/11 02:31:43;;;;;;;49.22;29.20;;;;;;;16.41;90.97;100690.91;4943713;29;20040;-44
2023/06/11 02:34:10;;;;;;;51.45;28.75;;;;;;;16.43;90.78;100685.78;4945879;29;20047;-46
2023/06/11 02:36:37;;;;;;;43.85;25.73;;;;;;;16.43;90.76;100685.78;4951934;29;20103;-45
2023/06/11 02:39:05;;;;;;;50.53;28.73;;;;;;;16.42;90.91;100691.72;4950906;29;20043;-44
2023/06/11 02:41:33;;;;;;;48.75;28.67;;;;;;;16.37;90.81;100690.09;4943446;29;20099;-44
2023/06/11 02:44:00;;;;;;;46.33;27.77;;;;;;;16.33;91.16;100689.28;4956167;29;20490;-44
2023/06/11 02:46:26;;;;;;;50.20;28.00;;;;;;;16.33;91.31;100683.69;4956003;29;20130;-45
2023/06/11 02:48:53;;;;;;;54.05;29.80;;;;;;;16.33;91.33;100683.69;4956225;29;20138;-45
2023/06/11 02:51:20;;;;;;;51.13;30.48;;;;;;;16.31;91.32;100691.63;4955783;29;20541;-44
2023/06/11 02:53:47;;;;;;;48.53;27.92;;;;;;;16.28;91.39;100686.81;4952518;29;20055;-44
2023/06/11 02:56:14;;;;;;;48.67;28.50;;;;;;;16.22;91.45;100681.97;4946043;29;20530;-45
2023/06/11 02:58:41;;;;;;;55.63;31.05;;;;;;;16.19;91.69;100679.94;4933846;29;20071;-45
2023/06/11 03:01:08;;;;;;;52.15;28.42;;;;;;;16.14;91.77;100686.69;5022402;23;20055;-48
2023/06/11 03:03:35;;;;;;;55.00;31.35;;;;;;;16.13;91.81;100679.50;4953662;28;20066;-45
2023/06/11 03:06:02;;;;;;;61.65;33.03;;;;;;;16.13;91.99;100679.50;4953736;29;20047;-45
2023/06/11 03:08:29;;;;;;;53.30;31.38;;;;;;;16.15;92.09;100682.69;4953762;29;20055;-44
2023/06/11 03:10:57;;;;;;;53.97;30.80;;;;;;;16.17;91.95;100685.94;4952127;28;20043;-45
2023/06/11 03:13:24;;;;;;;50.15;29.35;;;;;;;16.19;91.95;100686.34;4953455;29;20054;-46
2023/06/11 03:15:51;;;;;;;49.90;31.50;;;;;;;16.19;91.86;100683.53;4953480;28;20556;-44
2023/06/11 03:18:18;;;;;;;62.90;33.20;;;;;;;16.20;91.89;100684.34;4954401;29;20035;-44
2023/06/11 03:20:45;;;;;;;49.95;29.65;;;;;;;16.19;92.04;100679.94;4954721;28;20047;-44
2023/06/11 03:23:14;;;;;;;53.65;30.10;;;;;;;16.18;92.15;100681.13;4949260;29;20110;-44
2023/06/11 03:25:43;;;;;;;56.85;33.30;;;;;;;16.19;92.08;100682.75;4953683;29;20051;-44
2023/06/11 03:28:09;;;;;;;55.10;33.58;;;;;;;16.18;92.18;100681.94;4953443;28;20397;-49
2023/06/11 03:30:36;;;;;;;57.50;32.75;;;;;;;16.16;92.19;100678.72;4949566;29;20035;-44
2023/06/11 03:33:03;;;;;;;57.53;29.75;;;;;;;16.16;92.21;100689.09;4954742;29;20568;-44
2023/06/11 03:35:30;;;;;;;53.65;29.95;;;;;;;16.14;92.30;100681.09;4953536;28;20138;-43
2023/06/11 03:37:57;;;;;;;52.35;30.25;;;;;;;16.14;92.31;100686.69;4953159;29;20413;-45
2023/06/11 03:40:23;;;;;;;49.60;30.58;;;;;;;16.15;92.32;100681.91;4953167;28;20675;-44
2023/06/11 03:42:50;;;;;;;56.72;32.50;;;;;;;16.13;92.33;100681.47;4937778;29;20055;-44
2023/06/11 03:45:17;;;;;;;55.80;32.53;;;;;;;16.12;92.41;100683.50;4953265;28;20043;-45
2023/06/11 03:47:44;;;;;;;65.55;33.75;;;;;;;16.09;92.40;100675.88;4953476;29;20090;-44
2023/06/11 03:50:12;;;;;;;54.85;32.25;;;;;;;16.11;92.58;100678.28;4953365;28;20133;-47
2023/06/11 03:52:43;;;;;;;53.67;31.05;;;;;;;16.13;92.57;100673.91;4951314;28;20043;-44
2023/06/11 03:55:10;;;;;;;59.70;32.60;;;;;;;16.16;92.50;100678.72;4953431;29;20160;-45
2023/06/11 03:57:37;;;;;;;58.00;32.10;;;;;;;16.18;92.51;100676.34;4953137;28;20486;-44
2023/06/11 04:00:04;;;;;;;51.15;31.50;;;;;;;16.21;92.44;100677.56;4953959;28;20062;-44
2023/06/11 04:02:31;;;;;;;60.53;32.08;;;;;;;16.21;92.47;100686.75;4952967;29;20071;-44
2023/06/11 04:04:58;;;;;;;48.72;29.92;;;;;;;16.19;92.58;100686.34;4953589;29;20035;-46
2023/06/11 04:07:25;;;;;;;50.70;31.08;;;;;;;16.18;92.60;100686.72;4955206;28;20079;-48
2023/06/11 04:09:52;;;;;;;57.88;32.40;;;;;;;16.19;92.72;100686.34;4954729;29;20569;-46
2023/06/11 04:12:22;;;;;;;47.85;29.13;;;;;;;16.19;92.81;100689.13;4961762;28;20046;-44
2023/06/11 04:14:49;;;;;;;58.65;32.67;;;;;;;16.19;92.71;100680.75;4954469;29;20490;-44
2023/06/11 04:17:15;;;;;;;59.13;33.55;;;;;;;16.19;92.68;100680.75;4937499;29;20053;-45
2023/06/11 04:19:42;;;;;;;56.42;33.30;;;;;;;16.21;92.71;100686.75;4954330;29;20042;-44
2023/06/11 04:22:09;;;;;;;55.75;33.20;;;;;;;16.21;92.68;100692.34;4951735;28;20047;-44
2023/06/11 04:24:36;;;;;;;58.42;32.00;;;;;;;16.24;92.82;100696.34;4954441;29;20047;-44
2023/06/11 04:27:06;;;;;;;59.42;33.90;;;;;;;16.25;92.83;100698.78;4954777;29;20074;-46
2023/06/11 04:29:33;;;;;;;57.67;33.70;;;;;;;16.26;92.86;100689.19;4955006;28;20062;-44
2023/06/11 04:32:02;;;;;;;56.45;31.98;;;;;;;16.26;92.80;100697.56;4954367;29;20039;-44
2023/06/11 04:34:30;;;;;;;67.65;34.15;;;;;;;16.27;92.82;100695.59;4954175;29;20051;-43
2023/06/11 04:36:57;;;;;;;63.28;33.38;;;;;;;16.28;92.86;100694.41;4953102;28;20043;-44
2023/06/11 04:39:24;;;;;;;57.35;33.55;;;;;;;16.28;92.83;100700.78;4946280;28;20493;-44
2023/06/11 04:41:51;;;;;;;60.92;33.78;;;;;;;16.29;93.04;100699.59;4952559;29;20043;-44
2023/06/11 04:44:22;;;;;;;62.55;32.83;;;;;;;16.31;92.91;100700.00;4951068;29;20050;-45
2023/06/11 04:46:49;;;;;;;60.67;32.22;;;;;;;16.32;93.04;100700.81;4952320;29;20039;-43
2023/06/11 04:49:20;;;;;;;56.40;32.90;;;;;;;16.29;93.07;100699.59;4951939;29;20059;-44
2023/06/11 04:51:48;;;;;;;64.57;34.05;;;;;;;16.28;93.12;100702.78;4952456;29;20039;-43
2023/06/11 04:54:17;;;;;;;62.10;34.38;;;;;;;16.27;93.31;100701.19;4950988;28;20642;-45
2023/06/11 04:56:44;;;;;;;63.72;33.00;;;;;;;16.24;93.52;100697.16;4947672;28;20498;-45
2023/06/11 04:59:11;;;;;;;59.53;32.22;;;;;;;16.25;93.64;100704.38;4951971;28;20511;-44
2023/06/11 05:01:46;;;;;;;60.60;32.72;;;;;;;16.27;93.76;100704.78;4952127;29;20059;-45
2023/06/11 05:04:14;;;;;;;58.75;32.10;;;;;;;16.29;93.91;100705.19;4952889;28;20075;-45
2023/06/11 05:06:44;;;;;;;58.13;31.02;;;;;;;16.31;94.22;100700.00;4934516;29;20061;-46
2023/06/11 05:09:12;;;;;;;55.25;31.00;;;;;;;16.33;94.31;100702.44;4951942;28;20614;-45
2023/06/11 05:11:43;;;;;;;50.25;29.75;;;;;;;16.37;94.42;100709.66;4942391;29;20107;-44
2023/06/11 05:14:10;;;;;;;50.53;28.05;;;;;;;16.41;94.37;100713.28;4947731;28;20039;-44
2023/06/11 05:16:38;;;;;;;62.47;31.40;;;;;;;16.47;94.45;100716.53;4950350;28;20047;-43
2023/06/11 05:19:08;;;;;;;51.10;27.75;;;;;;;16.51;94.29;100719.34;4950594;29;20047;-47
2023/06/11 05:21:36;;;;;;;50.40;28.63;;;;;;;16.53;94.36;100703.03;4950342;29;20039;-43
2023/06/11 05:24:07;;;;;;;49.33;28.38;;;;;;;16.55;94.36;100701.44;4949760;29;20564;-44
2023/06/11 05:26:34;;;;;;;54.57;29.27;;;;;;;16.57;94.69;100703.88;4953053;29;20565;-46
2023/06/11 05:29:03;;;;;;;56.22;30.88;;;;;;;16.60;94.71;100705.91;4929989;29;20057;-44
2023/06/11 05:31:30;;;;;;;50.65;28.40;;;;;;;16.62;94.69;100698.72;4959994;28;20129;-46
2023/06/11 05:33:57;;;;;;;57.72;28.52;;;;;;;16.65;94.68;100700.75;4953023;28;20067;-44
2023/06/11 05:36:26;;;;;;;48.78;27.48;;;;;;;16.69;94.81;100701.56;4952678;28;20600;-44
2023/06/11 05:38:53;;;;;;;52.67;28.58;;;;;;;16.74;94.76;100700.41;4953133;29;20070;-46
2023/06/11 05:41:21;;;;;;;48.13;26.00;;;;;;;16.74;94.82;100698.41;4952900;29;20043;-45
2023/06/11 05:43:49;;;;;;;48.40;27.70;;;;;;;16.78;94.75;100695.66;4953064;29;20509;-44
2023/06/11 05:46:16;;;;;;;63.55;31.15;;;;;;;16.82;94.79;100694.47;4952459;28;20098;-46
2023/06/11 05:48:46;;;;;;;58.70;29.20;;;;;;;16.87;94.95;100691.31;4952937;29;20059;-44
2023/06/11 05:51:13;;;;;;;49.28;27.42;;;;;;;16.94;94.80;100690.59;4951899;28;20106;-45
2023/06/11 05:53:40;;;;;;;46.75;26.88;;;;;;;16.94;94.88;100687.78;4953028;29;20051;-45
2023/06/11 05:56:07;;;;;;;51.97;25.85;;;;;;;16.96;94.94;100689.00;4952847;29;20085;-43
2023/06/11 05:58:35;;;;;;;41.08;25.33;;;;;;;16.99;95.11;100699.41;4953108;29;20083;-43
2023/06/11 06:01:06;;;;;;;46.70;26.48;;;;;;;17.03;95.17;100703.03;4934479;29;20046;-45
2023/06/11 06:03:33;;;;;;;41.80;23.70;;;;;;;17.12;94.91;100708.28;4951355;29;20062;-42
2023/06/11 06:06:01;;;;;;;46.95;24.63;;;;;;;17.14;94.74;100705.88;4948161;29;20039;-43
2023/06/11 06:08:31;;;;;;;45.90;24.80;;;;;;;17.14;94.72;100705.88;4951666;29;20086;-45
2023/06/11 06:10:58;;;;;;;46.13;25.00;;;;;;;17.18;94.88;100705.91;4949517;29;20039;-44
2023/06/11 06:13:25;;;;;;;41.83;23.20;;;;;;;17.19;94.81;100702.72;4951562;29;20449;-43
2023/06/11 06:15:52;;;;;;;42.78;23.75;;;;;;;17.24;94.86;100704.31;4960986;28;20047;-44
2023/06/11 06:18:20;;;;;;;42.00;21.08;;;;;;;17.30;95.00;100708.38;4952779;29;20494;-44
2023/06/11 06:20:47;;;;;;;43.05;23.13;;;;;;;17.37;94.70;100714.00;4948106;28;20516;-44
2023/06/11 06:23:14;;;;;;;40.95;21.27;;;;;;;17.44;94.75;100709.25;4951422;29;20105;-44
2023/06/11 06:25:41;;;;;;;40.90;20.00;;;;;;;17.51;94.50;100708.47;4952622;29;20078;-43
2023/06/11 06:28:08;;;;;;;37.50;21.40;;;;;;;17.60;94.33;100723.78;4952824;29;20047;-46
2023/06/11 06:30:35;;;;;;;38.28;22.23;;;;;;;17.72;94.18;100719.00;4951559;29;20047;-47
2023/06/11 06:33:02;;;;;;;37.22;19.65;;;;;;;17.82;94.21;100719.03;4935600;29;20110;-43
2023/06/11 06:35:31;;;;;;;39.65;21.13;;;;;;;17.90;93.63;100722.66;4951800;29;20055;-45
2023/06/11 06:38:00;;;;;;;33.13;19.95;;;;;;;17.94;93.59;100726.28;4951879;29;20053;-44
2023/06/11 06:40:27;;;;;;;32.65;19.17;;;;;;;17.99;93.58;100723.91;4952301;29;20488;-44
2023/06/11 06:42:54;;;;;;;31.98;18.15;;;;;;;18.09;93.46;100736.31;4952537;29;20059;-44
2023/06/11 06:45:21;;;;;;;32.03;19.55;;;;;;;18.15;93.16;100732.75;4935705;29;20054;-44
2023/06/11 06:47:48;;;;;;;37.45;20.35;;;;;;;18.25;93.15;100739.56;4956379;29;20051;-45
2023/06/11 06:50:16;;;;;;;36.00;19.58;;;;;;;18.33;92.69;100738.38;4956184;29;20535;-45
2023/06/11 06:52:43;;;;;;;30.30;17.95;;;;;;;18.40;92.55;100749.59;4955852;28;20047;-45
2023/06/11 06:55:10;;;;;;;29.15;18.75;;;;;;;18.45;92.46;100745.63;4953273;29;20681;-44
2023/06/11 06:57:37;;;;;;;30.90;18.25;;;;;;;18.50;91.93;100750.88;4955831;28;20086;-44
2023/06/11 07:00:05;;;;;;;28.80;18.48;;;;;;;18.56;91.83;100740.88;4937557;29;20469;-45
2023/06/11 07:02:32;;;;;;;31.10;17.65;;;;;;;18.60;91.71;100747.25;4955669;29;20106;-47
2023/06/11 07:05:00;;;;;;;29.15;18.65;;;;;;;18.66;91.64;100740.06;4955757;29;20047;-44
2023/06/11 07:07:27;;;;;;;30.67;17.98;;;;;;;18.78;91.63;100737.66;4955680;29;20058;-43
2023/06/11 07:09:59;;;;;;;26.98;16.77;;;;;;;18.88;91.07;100746.47;4955957;29;20058;-45
2023/06/11 07:12:26;;;;;;;25.65;17.38;;;;;;;18.92;90.61;100750.06;4941949;29;20561;-48
2023/06/11 07:14:52;;;;;;;26.35;18.45;;;;;;;18.96;90.58;100743.25;4953962;29;20457;-45
2023/06/11 07:17:21;;;;;;;30.92;16.30;;;;;;;19.03;90.06;100740.47;4954211;29;20051;-48
2023/06/11 07:19:48;;;;;;;30.83;16.88;;;;;;;19.11;89.84;100744.03;4954676;28;20564;-45
2023/06/11 07:22:15;;;;;;;26.10;15.82;;;;;;;19.17;89.65;100748.84;4953963;29;20039;-45
2023/06/11 07:24:46;;;;;;;23.58;16.05;;;;;;;19.26;89.32;100757.66;4953846;29;20172;-44
2023/06/11 07:27:14;;;;;;;27.08;16.35;;;;;;;19.32;88.80;100755.25;4952289;29;20050;-46
2023/06/11 07:29:40;;;;;;;23.02;14.20;;;;;;;19.36;89.16;100753.22;4946111;28;20489;-44
2023/06/11 07:32:08;;;;;;;26.80;17.20;;;;;;;19.43;88.65;100751.22;4962740;28;20047;-43
2023/06/11 07:34:35;;;;;;;31.77;16.90;;;;;;;19.48;88.51;100752.81;4955279;28;20082;-45
2023/06/11 07:37:02;;;;;;;28.15;16.38;;;;;;;19.61;88.28;100751.19;4939582;29;20050;-45
2023/06/11 07:39:29;;;;;;;23.90;14.77;;;;;;;19.72;87.86;100751.16;4937960;29;20043;-43
2023/06/11 07:41:56;;;;;;;26.35;16.95;;;;;;;19.81;87.82;100754.31;4955038;29;20061;-44
2023/06/11 07:44:23;;;;;;;22.85;14.70;;;;;;;19.87;87.25;100759.09;4955044;29;20044;-44
2023/06/11 07:46:50;;;;;;;24.17;15.73;;;;;;;19.93;86.96;100757.47;4954181;28;20489;-46
2023/06/11 07:49:17;;;;;;;25.35;15.73;;;;;;;19.96;86.39;100765.06;4951108;28;20433;-44
2023/06/11 07:51:46;;;;;;;18.90;13.10;;;;;;;19.98;86.22;100759.88;4937796;29;20497;-45
2023/06/11 07:54:12;;;;;;;18.88;12.75;;;;;;;20.03;85.80;100767.06;4948875;29;20052;-44
2023/06/11 07:56:39;;;;;;;22.80;12.93;;;;;;;20.06;85.14;100769.06;4953188;28;20165;-43
2023/06/11 07:59:06;;;;;;;17.45;12.43;;;;;;;20.12;84.95;100769.44;4955032;29;20083;-45
2023/06/11 08:01:33;;;;;;;18.88;12.80;;;;;;;20.18;84.50;100767.78;4953571;29;20067;-44
2023/06/11 08:04:00;;;;;;;20.05;13.38;;;;;;;20.26;84.24;100775.00;4954561;29;20142;-43
2023/06/11 08:06:27;;;;;;;24.98;13.45;;;;;;;20.30;84.01;100758.91;4953255;29;20106;-46
2023/06/11 08:08:56;;;;;;;32.70;15.95;;;;;;;20.31;83.68;100772.56;4952334;28;20046;-46
2023/06/11 08:11:23;;;;;;;21.88;14.02;;;;;;;20.30;83.46;100772.97;4938484;29;20055;-46
2023/06/11 08:13:49;;;;;;;24.02;14.98;;;;;;;20.31;83.26;100766.13;4949606;28;20130;-44
2023/06/11 08:16:17;;;;;;;20.17;11.95;;;;;;;20.37;83.04;100772.94;4959488;28;20047;-45
2023/06/11 08:18:43;;;;;;;23.40;13.90;;;;;;;20.43;82.43;100774.09;4953008;29;20078;-44
2023/06/11 08:21:10;;;;;;;20.58;12.85;;;;;;;20.52;82.52;100782.88;4950513;29;20505;-46
2023/06/11 08:23:38;;;;;;;20.10;12.20;;;;;;;20.59;81.88;100771.59;4934706;29;20473;-44
2023/06/11 08:26:06;;;;;;;21.30;12.98;;;;;;;20.66;81.66;100774.34;4951921;29;20201;-45
2023/06/11 08:28:35;;;;;;;23.23;13.32;;;;;;;20.80;81.17;100768.63;4953447;28;20105;-44
2023/06/11 08:31:02;;;;;;;16.05;11.07;;;;;;;21.01;80.80;100771.25;4954244;29;20050;-44
2023/06/11 08:33:28;;;;;;;15.30;10.27;;;;;;;21.17;80.27;100763.09;4937202;29;20390;-44
2023/06/11 08:35:55;;;;;;;16.77;11.27;;;;;;;21.35;80.17;100759.28;4952975;29;20039;-46
2023/06/11 08:38:24;;;;;;;9.50;7.47;;;;;;;21.62;79.74;100763.03;4953617;29;20560;-44
2023/06/11 08:40:51;;;;;;;15.50;10.77;;;;;;;21.98;78.76;100771.88;4953745;29;20493;-44
2023/06/11 08:43:18;;;;;;;18.25;10.68;;;;;;;22.21;78.08;100769.94;4954056;29;20102;-44
2023/06/11 08:45:45;;;;;;;13.98;10.68;;;;;;;22.43;77.46;100771.25;4954101;29;20055;-44
2023/06/11 08:48:13;;;;;;;20.38;12.15;;;;;;;22.61;76.69;100773.78;4953645;28;20067;-44
2023/06/11 08:50:41;;;;;;;20.05;12.15;;;;;;;22.76;76.13;100777.22;4952424;29;20047;-47
2023/06/11 08:53:12;;;;;;;18.73;13.52;;;;;;;22.84;75.19;100779.53;4950439;29;20528;-51
2023/06/11 08:55:41;;;;;;;16.63;12.10;;;;;;;22.91;74.86;100772.94;4946410;28;20050;-50
2023/06/11 08:58:09;;;;;;;11.93;8.65;;;;;;;23.00;74.11;100776.03;4951201;29;20043;-51
2023/06/11 09:00:37;;;;;;;12.43;8.60;;;;;;;23.07;73.32;100775.91;4951677;29;20528;-47
2023/06/11 09:03:04;;;;;;;15.95;9.98;;;;;;;23.24;72.54;100768.34;4935202;29;20047;-51
2023/06/11 09:05:31;;;;;;;14.10;8.77;;;;;;;23.32;71.77;100770.63;4951840;29;20047;-48
2023/06/11 09:07:58;;;;;;;17.60;9.73;;;;;;;23.29;71.35;100768.66;4951850;28;20776;-49
2023/06/11 09:10:26;;;;;;;14.05;9.02;;;;;;;23.32;70.84;100767.78;4950865;28;20051;-48
2023/06/11 09:12:54;;;;;;;14.40;9.07;;;;;;;23.36;70.54;100771.34;4950897;28;20047;-50
2023/06/11 09:15:25;;;;;;;15.52;8.93;;;;;;;23.43;69.87;100767.63;4949387;29;20067;-49
2023/06/11 09:17:52;;;;;;;11.05;7.05;;;;;;;23.58;69.26;100766.13;4953882;29;20061;-49
2023/06/11 09:20:19;;;;;;;11.18;7.03;;;;;;;24.48;68.24;100773.09;4951687;28;20193;-50
2023/06/11 09:22:47;;;;;;;11.48;7.43;;;;;;;25.28;65.93;100768.72;4952305;29;20051;-47
2023/06/11 09:25:18;;;;;;;13.32;7.28;;;;;;;25.34;65.28;100772.59;4951634;29;20079;-47
2023/06/11 09:27:47;;;;;;;9.45;5.90;;;;;;;25.19;65.10;100782.72;4948965;29;20047;-47
2023/06/11 09:30:18;;;;;;;11.37;7.27;;;;;;;25.08;64.87;100788.66;4948952;28;20051;-50
2023/06/11 09:32:47;;;;;;;11.18;5.63;;;;;;;24.94;64.18;100774.84;4950253;29;20142;-50
2023/06/11 09:35:16;;;;;;;9.90;6.10;;;;;;;24.65;63.80;100777.53;4951225;28;20075;-47
2023/06/11 09:37:50;;;;;;;7.88;5.25;;;;;;;24.67;63.85;100775.09;4950967;29;20398;-43
2023/06/11 09:40:23;;;;;;;8.73;5.63;;;;;;;24.59;63.45;100772.88;4952249;29;20784;-48
2023/06/11 09:42:50;;;;;;;8.75;5.38;;;;;;;24.36;63.22;100776.59;4948289;29;20051;-48
2023/06/11 09:45:19;;;;;;;10.25;5.15;;;;;;;24.19;63.29;100763.66;4950910;29;20054;-47
2023/06/11 09:47:47;;;;;;;8.65;5.55;;;;;;;24.28;63.56;100772.34;4953021;29;20047;-48
2023/06/11 09:50:16;;;;;;;7.78;5.97;;;;;;;24.59;62.36;100772.88;4951705;29;20107;-48
2023/06/11 09:52:44;;;;;;;8.27;6.05;;;;;;;24.65;61.83;100771.88;4948895;28;20102;-51
2023/06/11 09:55:12;;;;;;;7.38;5.32;;;;;;;24.36;62.03;100768.13;4950307;29;20047;-50
2023/06/11 09:57:40;;;;;;;6.05;5.45;;;;;;;24.02;62.38;100774.09;4946605;28;20047;-48
2023/06/11 10:00:11;;;;;;;11.63;6.43;;;;;;;23.74;62.67;100777.50;4933963;29;20082;-53
2023/06/11 10:02:41;;;;;;;13.05;6.95;;;;;;;23.49;63.09;100768.72;4948497;28;20082;-47
2023/06/11 10:05:10;;;;;;;9.55;6.65;;;;;;;23.33;63.59;100766.53;4947796;29;20078;-45
2023/06/11 10:08:28;;;;;;;9.65;5.70;;;;;;;23.27;63.85;100773.16;4935260;29;20047;-48
2023/06/11 10:11:38;;;;;;;8.32;5.80;;;;;;;23.27;63.77;100767.50;4916451;29;20054;-47
2023/06/11 10:14:11;;;;;;;13.25;6.50;;;;;;;23.38;64.05;100779.41;4933239;29;20409;-50
2023/06/11 10:16:39;;;;;;;8.88;5.63;;;;;;;23.61;63.51;100774.53;4934028;29;20051;-47
2023/06/11 10:19:07;;;;;;;10.75;5.55;;;;;;;23.65;62.97;100780.09;4954247;28;20054;-47
2023/06/11 10:21:40;;;;;;;10.90;5.90;;;;;;;23.55;63.00;100779.09;4954701;28;20081;-45
2023/06/11 10:24:08;;;;;;;10.35;4.53;;;;;;;23.68;62.78;100782.06;4953130;29;20090;-45
2023/06/11 10:26:35;;;;;;;6.88;4.93;;;;;;;23.73;62.57;100784.38;4953733;28;20142;-47
2023/06/11 10:29:09;;;;;;;9.35;5.38;;;;;;;23.86;62.49;100774.03;4956552;28;20071;-46
2023/06/11 10:31:41;;;;;;;10.00;5.07;;;;;;;23.93;62.41;100781.56;4953891;29;20047;-51
2023/06/11 10:34:13;;;;;;;5.47;4.32;;;;;;;23.86;62.40;100787.34;4952165;29;20055;-50
2023/06/11 10:36:41;;;;;;;6.53;4.22;;;;;;;23.69;62.17;100783.69;4954027;29;20055;-45
2023/06/11 10:39:10;;;;;;;8.40;5.32;;;;;;;23.56;62.25;100794.03;4955064;29;20050;-47
2023/06/11 10:41:39;;;;;;;7.35;4.75;;;;;;;23.50;62.48;100788.06;4938409;29;20077;-44
2023/06/11 10:44:07;;;;;;;11.95;6.75;;;;;;;23.48;62.67;100789.75;4954206;29;20050;-44
2023/06/11 10:46:47;;;;;;;13.00;6.95;;;;;;;23.68;62.58;100786.91;4954052;29;20544;-46
2023/06/11 10:49:15;;;;;;;14.77;8.50;;;;;;;23.87;62.64;100800.28;4956375;29;20089;-45
2023/06/11 10:51:42;;;;;;;13.52;9.13;;;;;;;24.04;62.57;100793.47;4954099;29;20045;-46
2023/06/11 10:54:26;;;;;;;10.93;7.13;;;;;;;24.36;62.23;100793.59;4953313;29;20055;-44
2023/06/11 10:56:54;;;;;;;11.33;6.70;;;;;;;24.51;62.07;100792.03;4946224;29;20041;-44
2023/06/11 10:59:20;;;;;;;9.48;5.88;;;;;;;24.61;62.23;100799.50;4955079;29;20312;-46
2023/06/11 11:01:52;;;;;;;9.07;4.93;;;;;;;24.85;61.67;100800.16;4953058;29;20486;-45
2023/06/11 11:04:21;;;;;;;7.93;4.95;;;;;;;25.08;61.10;100799.19;4937248;29;20134;-45
2023/06/11 11:07:07;;;;;;;7.13;6.38;;;;;;;25.28;60.95;100811.25;4954049;28;20053;-46
2023/06/11 11:09:35;;;;;;;3.83;2.80;;;;;;;25.20;60.63;100812.66;4950650;28;20573;-45
2023/06/11 11:12:03;;;;;;;6.82;3.85;;;;;;;25.06;60.76;100804.50;4955659;29;20401;-47
2023/06/11 11:14:30;;;;;;;6.68;3.95;;;;;;;24.94;61.18;100803.16;4953966;29;20054;-44
2023/06/11 11:17:00;;;;;;;7.55;6.00;;;;;;;24.75;61.07;100815.34;4953522;29;20043;-46
2023/06/11 11:19:30;;;;;;;6.82;4.70;;;;;;;24.52;61.39;100807.78;4954296;28;20097;-46